Time;durP1;ratioP1;P1;durP2;ratioP2;P2;SDS_P1;SDS_P2;PMS_P1;PMS_P2;Temp;Humidity;BMP_temperature;BMP_pressure;BME280_temperature;BME280_humidity;BME280_pressure;Samples;Min_cycle;Max_cycle;Signal;HPM_P1;HPM_P2
2022/01/14 00:00:56;;;;;;;;;51.00;41.75;;;;;4.46;72.59;103447.81;5079420;27;45306;-52
2022/01/14 00:03:21;;;;;;;;;44.00;39.50;;;;;4.47;72.69;103445.16;5079536;27;45396;-53
2022/01/14 00:05:47;;;;;;;;;73.25;48.50;;;;;4.48;72.15;103443.41;5078854;27;45316;-52
2022/01/14 00:08:12;;;;;;;;;49.00;39.75;;;;;4.46;72.37;103440.78;5078618;28;45319;-53
2022/01/14 00:10:40;;;;;;;;;40.75;30.25;;;;;4.47;72.20;103433.78;5078626;28;45266;-54
2022/01/14 00:13:08;;;;;;;;;42.25;36.00;;;;;4.45;71.97;103440.84;5078694;27;45364;-53
2022/01/14 00:15:35;;;;;;;;;64.00;48.50;;;;;4.45;71.82;103446.09;5078451;27;46184;-52
2022/01/14 00:18:01;;;;;;;;;54.75;46.00;;;;;4.44;71.85;103434.69;5078433;27;45339;-50
2022/01/14 00:20:28;;;;;;;;;57.75;43.50;;;;;4.43;71.74;103437.38;5078512;27;45353;-48
2022/01/14 00:22:53;;;;;;;;;60.00;45.00;;;;;4.42;71.75;103433.84;5078681;27;45333;-48
2022/01/14 00:33:27;;;;;;;;;52.50;35.75;;;;;4.40;73.02;103437.47;5077645;28;45396;-52
2022/01/14 00:35:53;;;;;;;;;53.25;42.50;;;;;4.36;72.03;103427.91;5078182;28;46291;-53
2022/01/14 00:38:19;;;;;;;;;45.75;41.00;;;;;4.36;72.51;103430.53;5077924;28;45423;-52
2022/01/14 00:40:44;;;;;;;;;53.00;37.75;;;;;4.36;73.11;103434.03;5078179;28;45394;-52
2022/01/14 00:43:10;;;;;;;;;51.25;38.25;;;;;4.33;73.18;103425.34;5078480;28;45345;-54
2022/01/14 00:45:36;;;;;;;;;47.25;38.75;;;;;4.36;73.76;103426.13;5077990;27;46171;-54
2022/01/14 00:48:04;;;;;;;;;58.75;45.00;;;;;4.34;73.57;103425.31;5077867;27;45337;-53
2022/01/14 00:50:30;;;;;;;;;58.50;34.75;;;;;4.37;72.91;103432.25;5078246;27;45394;-53
2022/01/14 00:52:55;;;;;;;;;57.25;41.75;;;;;4.35;72.60;103420.91;5078166;28;45242;-49
2022/01/14 00:55:29;;;;;;;;;61.00;42.75;;;;;4.29;73.29;103413.16;5077874;27;45294;-52
2022/01/14 01:00:31;;;;;;;;;48.00;37.00;;;;;4.34;73.27;103427.06;5077938;27;45416;-53
2022/01/14 01:02:56;;;;;;;;;54.50;42.50;;;;;4.35;72.91;103426.19;5110564;27;45262;-49
2022/01/14 01:05:22;;;;;;;;;51.25;39.25;;;;;4.28;73.00;103416.69;5077458;28;46071;-52
2022/01/14 01:10:48;;;;;;;;;56.75;38.75;;;;;4.34;74.09;103419.16;4995172;28;45415;-53
2022/01/14 01:13:25;;;;;;;;;46.75;39.25;;;;;4.34;73.25;103422.69;4995597;28;45496;-50
2022/01/14 01:15:51;;;;;;;;;51.25;40.00;;;;;4.35;73.06;103434.09;4995038;28;46120;-49
2022/01/14 01:18:19;;;;;;;;;40.25;36.00;;;;;4.33;72.70;103442.00;4995133;28;45282;-50
2022/01/14 01:20:44;;;;;;;;;45.50;42.00;;;;;4.33;73.32;103436.75;4995135;28;45446;-54
2022/01/14 01:23:10;;;;;;;;;47.50;38.25;;;;;4.33;72.64;103428.84;4995305;28;45418;-53
2022/01/14 01:25:41;;;;;;;;;46.00;40.75;;;;;4.33;72.97;103425.34;4994945;28;46097;-53
2022/01/14 01:28:06;;;;;;;;;43.75;34.25;;;;;4.22;73.27;103408.06;4994887;28;45334;-53
2022/01/14 01:33:00;;;;;;;;;47.50;38.25;;;;;4.32;73.54;103428.88;4995193;28;45440;-53
2022/01/14 01:35:26;;;;;;;;;52.50;40.00;;;;;4.30;73.57;103425.41;4994890;28;46166;-49
2022/01/14 01:37:52;;;;;;;;;56.75;34.50;;;;;4.31;72.55;103424.53;4994633;28;46119;-53
2022/01/14 01:40:19;;;;;;;;;45.00;37.25;;;;;4.29;73.68;103427.19;4995174;28;45372;-52
2022/01/14 01:42:45;;;;;;;;;46.00;37.25;;;;;4.28;73.08;103425.47;4994896;28;45265;-49
2022/01/14 01:45:19;;;;;;;;;48.50;35.75;;;;;4.27;73.61;103422.88;4998121;28;45356;-53
2022/01/14 01:47:49;;;;;;;;;39.25;32.75;;;;;4.25;72.47;103434.31;5033283;28;45516;-52
2022/01/14 01:50:18;;;;;;;;;43.50;35.50;;;;;4.27;73.52;103430.78;5043606;28;45326;-52
2022/01/14 01:52:43;;;;;;;;;38.25;33.00;;;;;4.24;72.88;103422.03;5043515;28;45414;-52
2022/01/14 01:55:09;;;;;;;;;36.50;33.50;;;;;4.23;72.31;103422.09;5043283;28;46581;-51
2022/01/14 01:57:35;;;;;;;;;56.50;37.00;;;;;4.21;72.97;103415.97;5043026;28;45609;-50
2022/01/14 02:00:07;;;;;;;;;41.50;34.25;;;;;4.21;72.88;103416.88;5043430;28;45220;-50
2022/01/14 02:02:35;;;;;;;;;36.75;31.75;;;;;4.19;73.03;103418.66;5043814;28;45616;-54
2022/01/14 02:05:01;;;;;;;;;41.25;34.50;;;;;4.18;73.62;103424.84;5043108;28;47146;-49
2022/01/14 02:07:26;;;;;;;;;44.75;38.25;;;;;4.18;72.78;103422.22;5043168;28;45236;-54
2022/01/14 02:09:52;;;;;;;;;45.75;33.25;;;;;4.18;72.70;103410.81;5043229;28;45453;-54
2022/01/14 02:12:19;;;;;;;;;43.50;39.25;;;;;4.13;73.52;103403.03;5043351;28;45481;-53
2022/01/14 02:14:55;;;;;;;;;46.50;32.50;;;;;4.17;73.66;103403.78;5043136;28;45353;-50
2022/01/14 02:18:24;;;;;;;;;42.25;32.00;;;;;4.17;73.36;103399.41;5042881;28;45374;-52
2022/01/14 02:23:01;;;;;;;;;44.50;38.50;;;;;4.16;73.09;103405.56;5043271;28;45326;-49
2022/01/14 02:25:30;;;;;;;;;38.50;27.00;;;;;4.16;72.68;103399.44;5042773;28;45480;-51
2022/01/14 02:27:58;;;;;;;;;49.75;38.00;;;;;4.15;73.07;103398.56;5042828;28;45189;-53
2022/01/14 02:30:24;;;;;;;;;41.25;34.50;;;;;4.14;72.86;103393.34;5042999;28;45394;-51
2022/01/14 02:32:49;;;;;;;;;36.75;34.25;;;;;4.12;73.37;103395.16;5058706;28;45425;-51
2022/01/14 02:35:15;;;;;;;;;44.00;37.50;;;;;4.13;73.68;103399.50;5042766;28;45440;-53
2022/01/14 02:37:40;;;;;;;;;43.50;36.50;;;;;4.14;73.10;103398.63;5048053;28;45390;-49
2022/01/14 02:40:06;;;;;;;;;38.75;31.75;;;;;4.13;73.50;103389.88;5083376;28;45247;-54
2022/01/14 02:42:32;;;;;;;;;42.75;37.50;;;;;4.09;73.98;103380.31;5083231;28;45464;-53
2022/01/14 02:45:02;;;;;;;;;40.25;31.00;;;;;4.07;73.19;103373.34;5083049;28;46026;-49
2022/01/14 02:47:28;;;;;;;;;51.00;41.00;;;;;4.04;73.59;103361.09;5083123;27;45507;-50
2022/01/14 02:49:54;;;;;;;;;69.00;47.75;;;;;4.11;73.46;103378.47;5083286;28;45279;-53
2022/01/14 02:52:29;;;;;;;;;57.75;46.75;;;;;4.08;72.92;103370.66;5083309;27;45415;-53
2022/01/14 02:55:14;;;;;;;;;48.50;44.25;;;;;4.10;73.12;103368.00;5083115;27;45337;-51
2022/01/14 02:57:42;;;;;;;;;53.25;44.75;;;;;3.97;73.38;103344.63;5079341;28;45346;-49
2022/01/14 03:00:09;;;;;;;;;59.25;42.50;;;;;4.06;73.85;103367.22;5079830;27;45452;-49
2022/01/14 03:02:36;;;;;;;;;51.25;44.75;;;;;4.07;73.40;103368.06;5079871;28;45331;-52
2022/01/14 03:05:03;;;;;;;;;57.00;43.50;;;;;4.07;72.90;103370.72;5079594;27;45373;-50
2022/01/14 03:07:28;;;;;;;;;49.25;38.50;;;;;4.03;73.29;103359.38;5079479;28;45238;-49
2022/01/14 03:09:54;;;;;;;;;55.25;43.75;;;;;4.05;72.94;103354.94;5079753;28;45404;-56
2022/01/14 03:12:20;;;;;;;;;50.25;41.50;;;;;4.09;73.59;103355.72;5079680;27;45408;-49
2022/01/14 03:14:45;;;;;;;;;40.25;33.75;;;;;4.07;73.26;103353.13;5079359;28;45381;-50
2022/01/14 03:17:12;;;;;;;;;48.00;34.50;;;;;4.05;72.89;103352.31;5079265;27;45464;-52
2022/01/14 03:19:37;;;;;;;;;40.00;36.00;;;;;4.05;72.94;103354.09;5079529;27;45353;-51
2022/01/14 03:22:28;;;;;;;;;52.00;39.25;;;;;4.05;72.81;103352.31;5079463;28;45555;-53
2022/01/14 03:27:17;;;;;;;;;42.25;34.75;;;;;4.05;72.85;103341.78;5112036;27;45394;-49
2022/01/14 03:29:42;;;;;;;;;37.00;27.00;;;;;4.05;72.80;103339.16;5079321;28;45365;-53
2022/01/14 03:32:08;;;;;;;;;43.00;35.75;;;;;4.04;73.52;103333.91;5079437;28;45429;-53
2022/01/14 03:34:34;;;;;;;;;46.00;36.25;;;;;4.04;73.75;103347.06;5079033;28;46216;-51
2022/01/14 03:36:59;;;;;;;;;44.25;39.75;;;;;3.94;73.54;103338.56;5078979;28;45432;-50
2022/01/14 03:39:25;;;;;;;;;32.50;31.75;;;;;4.02;74.06;103341.84;5078794;28;45406;-50
2022/01/14 03:41:50;;;;;;;;;51.25;36.75;;;;;4.04;74.05;103347.06;5079297;28;45352;-50
2022/01/14 03:44:17;;;;;;;;;42.50;35.00;;;;;4.03;73.48;103351.47;5078883;28;46419;-51
2022/01/14 03:46:43;;;;;;;;;68.25;49.50;;;;;3.99;72.88;103336.66;5078784;28;45291;-51
2022/01/14 03:49:08;;;;;;;;;76.50;57.25;;;;;4.00;72.92;103343.66;5079127;27;45339;-52
2022/01/14 03:51:34;;;;;;;;;69.50;51.00;;;;;3.99;72.87;103341.94;5079120;28;45364;-50
2022/01/14 03:53:59;;;;;;;;;71.75;56.00;;;;;3.99;73.49;103347.19;5078640;28;45382;-52
2022/01/14 03:56:26;;;;;;;;;77.75;56.75;;;;;3.98;73.04;103340.22;5078988;28;45285;-53
2022/01/14 03:58:55;;;;;;;;;67.25;51.00;;;;;3.95;73.12;103337.66;5078562;27;45369;-50
2022/01/14 04:01:21;;;;;;;;;65.25;49.25;;;;;3.90;72.75;103321.09;5078979;27;45465;-52
2022/01/14 04:03:49;;;;;;;;;58.25;49.50;;;;;3.95;73.56;103330.59;5078438;28;45329;-53
2022/01/14 04:06:16;;;;;;;;;51.75;45.50;;;;;3.93;72.76;103334.19;5078562;27;45279;-49
2022/01/14 04:08:42;;;;;;;;;53.50;43.50;;;;;3.91;73.63;103336.00;5077596;27;45310;-52
2022/01/14 04:11:09;;;;;;;;;72.50;47.50;;;;;3.76;73.08;103310.94;5078701;27;45432;-52
2022/01/14 04:14:07;;;;;;;;;48.25;36.50;;;;;3.89;73.54;103330.78;5078301;28;45392;-49
2022/01/14 04:16:23;;;;;;;;;52.75;40.50;;;;;3.90;73.46;103329.00;5078097;28;45436;-53
2022/01/14 04:18:50;;;;;;;;;49.00;35.50;;;;;3.89;73.91;103325.50;5078614;27;45333;-51
2022/01/14 04:21:16;;;;;;;;;47.75;41.50;;;;;3.89;73.41;103325.50;5078714;28;45440;-51
2022/01/14 04:23:41;;;;;;;;;47.00;39.75;;;;;3.86;72.85;103316.81;5076955;28;46130;-49
2022/01/14 04:26:07;;;;;;;;;43.00;38.50;;;;;3.92;73.62;103335.13;5078245;28;45243;-49
2022/01/14 04:28:36;;;;;;;;;48.75;35.00;;;;;3.91;73.36;103330.72;5078341;28;45306;-50
2022/01/14 04:31:04;;;;;;;;;41.75;34.00;;;;;3.90;73.13;103327.25;5078505;28;45359;-50
2022/01/14 04:33:31;;;;;;;;;47.00;39.50;;;;;3.91;73.04;103326.31;5078042;27;45429;-53
2022/01/14 04:35:58;;;;;;;;;49.25;36.50;;;;;3.92;73.48;103324.59;5078263;28;45239;-52
2022/01/14 04:38:25;;;;;;;;;57.50;42.00;;;;;3.90;72.55;103316.69;5078062;28;45424;-52
2022/01/14 04:40:51;;;;;;;;;53.25;37.00;;;;;3.74;73.04;103283.78;5078269;28;45431;-51
2022/01/14 04:43:19;;;;;;;;;52.75;38.50;;;;;3.88;72.77;103312.41;5077825;28;46449;-50
2022/01/14 04:46:02;;;;;;;;;33.50;32.00;;;;;3.90;72.83;103313.22;5077958;27;45364;-49
2022/01/14 04:48:37;;;;;;;;;44.75;34.00;;;;;3.89;73.66;103304.44;5078072;27;45409;-49
2022/01/14 04:51:06;;;;;;;;;38.75;37.00;;;;;3.86;73.08;103299.25;5078178;28;45343;-53
2022/01/14 04:53:31;;;;;;;;;34.00;29.00;;;;;3.89;73.50;103306.22;5077971;28;45373;-49
2022/01/14 04:55:57;;;;;;;;;40.00;33.00;;;;;3.81;72.85;103290.63;5077823;27;45325;-50
2022/01/14 04:58:24;;;;;;;;;51.50;33.75;;;;;3.89;72.95;103298.31;5077892;28;45305;-52
2022/01/14 05:00:50;;;;;;;;;42.25;35.00;;;;;3.90;73.30;103303.53;5078205;28;45554;-50
2022/01/14 05:03:16;;;;;;;;;34.25;28.50;;;;;3.84;72.77;103274.75;5077574;27;46014;-50
2022/01/14 05:05:45;;;;;;;;;39.25;28.50;;;;;3.77;73.46;103272.31;5077754;28;45344;-53
2022/01/14 05:08:18;;;;;;;;;35.50;30.00;;;;;3.89;73.26;103300.97;5077873;27;45320;-52
2022/01/14 05:13:18;;;;;;;;;43.25;32.25;;;;;3.88;73.67;103305.38;5077677;28;46109;-52
2022/01/14 05:15:44;;;;;;;;;42.00;34.00;;;;;3.85;73.27;103301.94;5077602;28;45677;-50
2022/01/14 05:18:09;;;;;;;;;48.00;35.75;;;;;3.87;72.85;103310.66;5077806;27;45293;-49
2022/01/14 05:20:35;;;;;;;;;44.75;34.75;;;;;3.89;72.79;103303.59;5077417;28;45355;-49
2022/01/14 05:23:00;;;;;;;;;40.75;33.00;;;;;3.41;72.84;103222.34;5077359;28;46232;-51
2022/01/14 05:25:25;;;;;;;;;30.50;28.25;;;;;3.83;73.51;103287.94;5077430;28;45454;-50
2022/01/14 05:27:51;;;;;;;;;39.25;32.00;;;;;3.89;73.28;103301.81;5077525;28;45753;-51
2022/01/14 05:30:16;;;;;;;;;35.25;34.50;;;;;3.86;73.43;103296.63;5077638;27;45353;-52
2022/01/14 05:32:53;;;;;;;;;41.00;39.75;;;;;3.88;72.93;103291.34;5077443;28;45242;-51
2022/01/14 05:35:22;;;;;;;;;37.00;33.25;;;;;3.87;73.42;103289.59;5077317;27;45454;-51
2022/01/14 05:37:48;;;;;;;;;45.50;35.00;;;;;3.91;72.73;103301.75;5077216;28;45306;-50
2022/01/14 05:40:15;;;;;;;;;47.25;36.00;;;;;3.91;73.53;103307.03;5077565;28;45204;-51
2022/01/14 05:42:41;;;;;;;;;45.50;35.00;;;;;3.89;72.88;103304.44;5077078;27;45510;-53
2022/01/14 05:45:09;;;;;;;;;36.50;35.25;;;;;3.89;73.46;103317.63;5076958;28;45315;-53
2022/01/14 05:47:35;;;;;;;;;46.75;34.50;;;;;3.86;73.16;103315.06;5077178;27;45502;-53
2022/01/14 05:50:01;;;;;;;;;42.00;35.25;;;;;3.86;73.72;103319.47;5077388;28;45401;-52
2022/01/14 05:52:26;;;;;;;;;38.25;30.50;;;;;3.86;73.54;103317.69;5076751;28;45343;-50
2022/01/14 05:54:53;;;;;;;;;53.50;43.25;;;;;3.88;72.97;103322.94;5076889;28;45318;-51
2022/01/14 05:57:22;;;;;;;;;44.75;33.00;;;;;3.88;73.35;103329.06;5077207;28;45330;-51
2022/01/14 05:59:48;;;;;;;;;44.75;39.25;;;;;3.84;72.93;103321.28;5077336;28;45366;-52
2022/01/14 06:02:14;;;;;;;;;43.25;36.25;;;;;3.79;72.69;103317.88;5076950;28;47199;-51
2022/01/14 06:04:39;;;;;;;;;49.00;40.75;;;;;3.69;72.63;103312.84;5076940;28;45368;-52
2022/01/14 06:07:05;;;;;;;;;40.75;29.50;;;;;3.63;73.11;103312.16;5076939;27;45377;-51
2022/01/14 06:09:32;;;;;;;;;31.75;28.25;;;;;3.59;73.34;103306.13;5077344;27;45311;-49
2022/01/14 06:11:57;;;;;;;;;39.25;34.00;;;;;3.63;73.20;103315.66;5076944;28;45346;-52
2022/01/14 06:14:23;;;;;;;;;50.75;39.25;;;;;3.53;73.24;103311.50;5076676;28;45430;-50
2022/01/14 06:16:48;;;;;;;;;48.50;40.75;;;;;3.56;73.74;103329.88;5077142;28;45423;-50
2022/01/14 06:19:13;;;;;;;;;37.75;31.25;;;;;3.52;73.34;103312.41;5077182;28;45319;-53
2022/01/14 06:21:39;;;;;;;;;36.25;30.75;;;;;3.47;73.21;103317.81;5076587;28;46254;-51
2022/01/14 06:24:05;;;;;;;;;46.50;36.50;;;;;3.43;73.53;103323.19;5076843;28;45230;-51
2022/01/14 06:26:30;;;;;;;;;47.75;37.75;;;;;3.40;73.35;103310.94;5076749;28;45235;-54
2022/01/14 06:28:56;;;;;;;;;53.75;43.25;;;;;3.41;73.85;103317.06;5077161;28;45424;-52
2022/01/14 06:31:21;;;;;;;;;46.75;38.25;;;;;3.40;73.80;103325.88;5076997;27;45307;-50
2022/01/14 06:33:47;;;;;;;;;38.00;34.75;;;;;3.38;73.26;103322.44;5080109;27;45242;-52
2022/01/14 06:36:13;;;;;;;;;47.50;38.50;;;;;3.37;73.01;103323.31;5080191;28;45260;-51
2022/01/14 06:38:38;;;;;;;;;51.75;41.50;;;;;3.36;73.76;103317.19;5079852;28;45443;-50
2022/01/14 06:41:04;;;;;;;;;60.25;44.00;;;;;3.33;74.15;103312.03;5079928;28;46279;-50
2022/01/14 06:43:29;;;;;;;;;59.75;39.25;;;;;3.37;73.32;103318.94;5079656;27;45438;-54
2022/01/14 06:45:54;;;;;;;;;48.25;41.75;;;;;3.38;73.52;103314.53;5079864;28;45321;-52
2022/01/14 06:48:20;;;;;;;;;50.50;42.00;;;;;3.41;73.83;103314.44;5080156;28;45439;-52
2022/01/14 06:50:45;;;;;;;;;51.25;39.00;;;;;3.42;74.01;103321.47;5079803;28;45383;-51
2022/01/14 06:53:11;;;;;;;;;48.75;39.00;;;;;3.42;73.80;103317.06;5079882;28;45370;-53
2022/01/14 06:55:36;;;;;;;;;66.50;40.50;;;;;3.40;73.63;103317.97;5080080;28;45350;-50
2022/01/14 06:58:02;;;;;;;;;46.50;34.00;;;;;3.39;74.02;103313.63;5080068;27;45359;-49
2022/01/14 07:00:28;;;;;;;;;54.50;44.75;;;;;3.37;73.96;103315.41;5079698;28;46171;-52
2022/01/14 07:02:54;;;;;;;;;54.75;44.00;;;;;3.34;73.14;103316.38;5079511;27;45250;-50
2022/01/14 07:05:19;;;;;;;;;54.75;42.75;;;;;3.34;73.96;103312.88;5078308;28;45395;-51
2022/01/14 07:07:45;;;;;;;;;51.25;40.00;;;;;3.30;73.82;103308.59;5078146;27;45293;-51
2022/01/14 07:10:10;;;;;;;;;52.50;44.00;;;;;3.29;74.35;103312.09;5078728;27;45952;-49
2022/01/14 07:12:41;;;;;;;;;53.50;38.00;;;;;3.17;73.78;103290.47;5079397;27;45259;-51
2022/01/14 07:15:12;;;;;;;;;60.00;45.00;;;;;3.21;74.10;103305.28;5078934;27;45295;-53
2022/01/14 07:17:39;;;;;;;;;57.75;42.25;;;;;3.22;74.09;103300.88;5079447;27;45302;-53
2022/01/14 07:20:08;;;;;;;;;56.75;42.75;;;;;3.22;73.81;103307.00;5091424;27;46119;-52
2022/01/14 07:22:34;;;;;;;;;47.25;38.50;;;;;3.18;74.37;103294.81;5099547;27;45341;-51
2022/01/14 07:25:00;;;;;;;;;44.75;37.75;;;;;3.16;73.91;103288.75;5099781;27;45320;-50
2022/01/14 07:27:27;;;;;;;;;49.75;39.00;;;;;3.24;74.58;103299.06;5086707;27;45522;-51
2022/01/14 07:29:53;;;;;;;;;56.00;44.50;;;;;3.25;74.02;103295.56;5079155;27;45566;-51
2022/01/14 07:32:18;;;;;;;;;51.25;44.00;;;;;3.18;74.16;103276.41;5084490;27;45349;-52
2022/01/14 07:34:45;;;;;;;;;51.00;43.75;;;;;3.27;73.77;103301.63;5099194;27;45355;-52
2022/01/14 07:37:11;;;;;;;;;51.00;41.75;;;;;3.26;74.84;103302.53;5099396;27;45409;-52
2022/01/14 07:39:36;;;;;;;;;52.00;44.50;;;;;3.28;74.72;103300.72;5099171;27;46166;-50
2022/01/14 07:42:02;;;;;;;;;55.00;39.75;;;;;3.29;74.69;103307.75;5097751;27;45406;-50
2022/01/14 07:44:27;;;;;;;;;50.25;40.75;;;;;3.34;74.14;103297.09;5097644;27;45496;-52
2022/01/14 07:46:52;;;;;;;;;17.75;14.25;;;;;3.37;74.71;103299.63;5098680;27;45291;-54
2022/01/14 07:49:18;;;;;;;;;43.00;40.25;;;;;3.40;73.87;103300.44;5098305;27;45412;-53
2022/01/14 07:51:43;;;;;;;;;52.50;42.25;;;;;3.40;74.68;103307.47;5098576;27;45548;-50
2022/01/14 07:54:09;;;;;;;;;47.00;31.75;;;;;3.41;74.32;103302.19;5084091;27;45590;-52
2022/01/14 07:56:38;;;;;;;;;40.50;32.75;;;;;3.47;74.45;103309.03;5078131;27;45374;-52
2022/01/14 07:59:06;;;;;;;;;42.50;34.00;;;;;3.51;74.49;103308.06;5077842;27;45386;-51
2022/01/14 08:01:33;;;;;;;;;50.50;41.50;;;;;3.55;74.03;103316.75;5076614;27;45437;-50
2022/01/14 08:03:59;;;;;;;;;52.25;39.25;;;;;3.57;74.07;103317.56;5077903;27;45341;-50
2022/01/14 08:06:25;;;;;;;;;53.75;35.75;;;;;3.57;74.00;103312.31;5077952;27;45457;-52
2022/01/14 08:08:51;;;;;;;;;48.75;40.50;;;;;3.59;73.18;103314.00;5077505;28;46157;-49
2022/01/14 08:11:16;;;;;;;;;53.00;41.75;;;;;3.60;73.36;103312.22;5077551;27;45425;-53
2022/01/14 08:13:41;;;;;;;;;44.75;38.50;;;;;3.63;73.24;103312.16;5077899;27;45416;-49
2022/01/14 08:16:07;;;;;;;;;51.50;44.00;;;;;3.64;74.13;103308.63;5077825;27;45243;-51
2022/01/14 08:18:33;;;;;;;;;66.00;41.25;;;;;3.64;72.97;103309.47;5077153;27;46023;-51
2022/01/14 08:20:59;;;;;;;;;66.50;47.00;;;;;3.68;73.43;103316.41;5077467;27;45327;-52
2022/01/14 08:23:25;;;;;;;;;56.25;43.50;;;;;3.72;73.11;103317.19;5077385;27;45838;-49
2022/01/14 08:25:53;;;;;;;;;55.75;41.50;;;;;3.73;72.99;103321.53;5077533;27;45446;-52
2022/01/14 08:28:21;;;;;;;;;55.00;44.50;;;;;3.69;73.11;103320.75;5077501;27;45433;-50
2022/01/14 08:30:47;;;;;;;;;47.25;44.25;;;;;3.74;73.44;103321.50;5076994;27;45234;-52
2022/01/14 08:33:13;;;;;;;;;46.00;38.75;;;;;3.77;72.89;103323.19;5077199;27;45310;-54
2022/01/14 08:35:39;;;;;;;;;58.00;46.50;;;;;3.81;73.65;103326.63;5077721;27;45408;-52
2022/01/14 08:38:05;;;;;;;;;49.25;33.25;;;;;3.84;72.94;103321.28;5076665;27;47102;-51
2022/01/14 08:40:30;;;;;;;;;51.50;41.50;;;;;3.89;72.47;103324.66;5077687;27;45302;-50
2022/01/14 08:42:56;;;;;;;;;49.75;41.00;;;;;3.94;72.77;103328.03;5077080;27;45281;-51
2022/01/14 08:45:22;;;;;;;;;56.75;44.50;;;;;3.99;71.96;103319.09;5077344;27;45427;-50
2022/01/14 08:47:52;;;;;;;;;53.00;44.25;;;;;4.02;71.95;103318.16;5077197;27;45357;-52
2022/01/14 08:50:21;;;;;;;;;49.25;42.50;;;;;4.07;72.60;103318.03;5076589;27;45356;-51
2022/01/14 08:52:47;;;;;;;;;55.75;44.50;;;;;4.07;72.45;103318.03;5077140;27;45445;-51
2022/01/14 08:55:15;;;;;;;;;62.00;47.00;;;;;4.18;71.59;103329.16;5076665;27;45440;-52
2022/01/14 08:57:41;;;;;;;;;57.50;45.00;;;;;4.20;72.40;103320.28;5076691;27;46197;-51
2022/01/14 09:00:07;;;;;;;;;45.00;41.50;;;;;4.29;71.78;103329.69;5076856;27;45463;-47
2022/01/14 09:02:34;;;;;;;;;55.50;42.50;;;;;4.26;72.08;103316.63;5076718;27;45413;-51
2022/01/14 09:04:59;;;;;;;;;48.00;43.00;;;;;4.30;71.81;103313.00;5076983;27;45510;-53
2022/01/14 09:07:26;;;;;;;;;50.50;43.00;;;;;4.41;72.33;103313.53;5076656;27;45707;-51
2022/01/14 09:09:54;;;;;;;;;56.75;45.00;;;;;4.48;71.09;103311.59;5076957;27;45331;-53
2022/01/14 09:12:19;;;;;;;;;49.75;39.50;;;;;4.58;71.22;103317.47;5076757;28;45244;-49
2022/01/14 09:14:45;;;;;;;;;62.50;42.00;;;;;4.65;71.60;103314.59;5077064;27;45465;-48
2022/01/14 09:17:10;;;;;;;;;52.50;47.00;;;;;4.74;70.39;103314.31;5076351;28;46230;-50
2022/01/14 09:19:36;;;;;;;;;54.25;43.25;;;;;4.73;70.45;103296.78;5075370;28;45760;-52
2022/01/14 09:22:02;;;;;;;;;52.25;39.25;;;;;4.88;70.00;103305.13;5076576;27;45434;-53
2022/01/14 09:24:27;;;;;;;;;57.50;41.25;;;;;5.04;69.87;103306.38;5076547;28;45740;-53
2022/01/14 09:26:52;;;;;;;;;56.25;41.50;;;;;5.19;69.34;103316.47;5076200;27;45429;-52
2022/01/14 09:29:19;;;;;;;;;52.25;46.25;;;;;5.66;68.96;103318.47;5076407;27;45411;-52
2022/01/14 09:31:44;;;;;;;;;56.00;43.75;;;;;7.20;65.60;103302.16;5076414;27;45507;-48
2022/01/14 09:34:10;;;;;;;;;55.50;44.25;;;;;8.88;59.98;103275.31;5076346;27;45410;-51
2022/01/14 09:36:35;;;;;;;;;46.25;38.00;;;;;10.47;58.07;103293.75;5076237;27;46321;-51
2022/01/14 09:39:01;;;;;;;;;59.50;42.50;;;;;11.73;54.39;103295.41;5076103;27;45431;-52
2022/01/14 09:41:27;;;;;;;;;57.00;45.75;;;;;12.79;51.01;103291.53;5076136;27;45450;-50
2022/01/14 09:43:53;;;;;;;;;56.00;44.25;;;;;13.49;49.41;103294.09;5076649;27;45759;-52
2022/01/14 09:46:18;;;;;;;;;53.50;40.00;;;;;14.23;47.15;103290.69;5075892;27;47122;-52
2022/01/14 09:48:47;;;;;;;;;57.25;38.50;;;;;14.81;47.08;103284.81;5075968;27;45342;-48
2022/01/14 09:51:13;;;;;;;;;51.00;40.25;;;;;15.49;44.46;103276.13;5076530;27;45291;-51
2022/01/14 09:53:38;;;;;;;;;48.75;37.00;;;;;15.96;42.88;103275.16;5076295;27;45453;-51
2022/01/14 09:56:04;;;;;;;;;47.50;40.00;;;;;16.54;41.16;103272.34;5076549;27;45492;-52
2022/01/14 09:58:35;;;;;;;;;58.25;39.00;;;;;17.13;39.89;103281.88;5076146;27;45402;-51
2022/01/14 10:01:14;;;;;;;;;50.00;37.75;;;;;17.71;39.70;103290.41;5075724;27;45379;-52
2022/01/14 10:04:03;;;;;;;;;51.67;37.00;;;;;18.16;38.77;103288.31;5075966;28;45239;-51
2022/01/14 10:06:47;;;;;;;;;54.00;39.50;;;;;18.36;39.21;103299.16;5077659;27;45578;-53
2022/01/14 10:09:29;;;;;;;;;42.67;35.33;;;;;18.76;37.71;103301.03;5079673;27;45314;-53
2022/01/14 10:12:08;;;;;;;;;49.00;37.00;;;;;19.07;35.33;103293.69;5079655;27;45365;-48
2022/01/14 10:14:37;;;;;;;;;37.67;34.67;;;;;19.37;35.05;103295.38;5080028;27;45434;-52
2022/01/14 10:17:08;;;;;;;;;48.00;34.33;;;;;19.74;38.43;103290.13;5078965;27;47209;-52
2022/01/14 10:19:42;;;;;;;;;49.00;39.00;;;;;20.03;40.16;103297.31;5078564;27;45996;-52
2022/01/14 10:22:26;;;;;;;;;49.67;37.00;;;;;19.62;33.79;103302.09;5078605;27;45499;-52
2022/01/14 10:25:00;;;;;;;;;49.00;39.00;;;;;19.36;32.89;103285.59;5059263;28;45406;-53
2022/01/14 10:27:49;;;;;;;;;47.33;38.00;;;;;19.04;33.85;103267.81;5058357;28;47289;-52
2022/01/14 10:30:31;;;;;;;;;48.00;40.00;;;;;19.09;33.61;103295.25;5058482;28;45473;-52
2022/01/14 10:33:08;;;;;;;;;45.00;38.00;;;;;19.34;35.20;103295.66;5058464;28;45520;-55
2022/01/14 10:35:37;;;;;;;;;54.33;40.00;;;;;19.34;32.72;103285.75;5058986;28;45390;-52
2022/01/14 10:38:05;;;;;;;;;48.00;38.00;;;;;19.40;33.25;103287.88;5058433;28;46164;-54
2022/01/14 10:40:34;;;;;;;;;53.67;41.00;;;;;19.07;34.40;103288.28;5058229;28;45374;-53
2022/01/14 10:43:06;;;;;;;;;54.67;39.00;;;;;18.10;34.75;103291.53;5058396;28;45286;-53
2022/01/14 10:45:34;;;;;;;;;55.67;43.00;;;;;18.09;33.87;103289.81;5058962;28;45477;-52
2022/01/14 10:48:03;;;;;;;;;54.67;42.33;;;;;18.14;35.61;103286.72;5057528;28;48011;-51
2022/01/14 10:50:30;;;;;;;;;52.67;40.67;;;;;17.74;35.70;103278.50;5058170;28;45358;-52
2022/01/14 10:52:56;;;;;;;;;53.67;42.33;;;;;16.64;36.75;103285.88;5058729;28;45371;-53
2022/01/14 10:55:34;;;;;;;;;53.33;36.67;;;;;15.66;38.68;103275.72;5058377;28;45429;-50
2022/01/14 10:58:02;;;;;;;;;55.00;44.67;;;;;15.45;38.47;103261.22;5058044;28;48685;-52
2022/01/14 11:00:28;;;;;;;;;57.00;45.00;;;;;16.37;37.58;103254.06;5058585;28;45405;-53
2022/01/14 11:02:54;;;;;;;;;61.33;44.33;;;;;17.16;37.95;103244.84;5057757;28;45539;-52
2022/01/14 11:05:24;;;;;;;;;50.67;38.00;;;;;17.27;38.25;103259.22;5058567;28;45295;-53
2022/01/14 11:07:50;;;;;;;;;61.75;45.00;;;;;16.80;38.46;103259.50;5058295;28;46166;-50
2022/01/14 11:10:17;;;;;;;;;60.00;47.33;;;;;17.08;36.98;103255.38;5058097;28;45830;-52
2022/01/14 11:12:43;;;;;;;;;62.50;46.00;;;;;17.46;37.31;103198.31;5058063;28;45526;-52
2022/01/14 11:15:10;;;;;;;;;60.00;48.00;;;;;18.19;33.85;103247.59;5058725;28;45457;-51
2022/01/14 11:17:37;;;;;;;;;54.75;45.25;;;;;17.81;34.60;103250.13;5057266;28;46001;-52
2022/01/14 11:20:04;;;;;;;;;63.25;45.00;;;;;17.81;35.93;103250.13;5057844;28;45424;-53
2022/01/14 11:25:14;;;;;;;;;60.75;46.25;;;;;18.57;36.07;103243.31;5058211;28;45429;-52
2022/01/14 11:27:46;;;;;;;;;61.00;47.25;;;;;18.55;34.16;103241.78;5057617;28;45501;-53
2022/01/14 11:30:13;;;;;;;;;61.25;47.00;;;;;18.10;34.00;103237.66;5057543;28;45374;-52
2022/01/14 11:32:51;;;;;;;;;54.67;43.00;;;;;17.43;38.49;103244.31;5057883;28;45315;-51
2022/01/14 11:35:22;;;;;;;;;52.33;41.00;;;;;16.89;36.73;103231.00;5057808;28;45768;-54
2022/01/14 11:37:47;;;;;;;;;53.67;42.00;;;;;16.51;35.23;103207.25;5057455;28;45580;-53
2022/01/14 11:40:15;;;;;;;;;55.33;44.67;;;;;16.18;36.83;103220.63;5056099;28;45822;-53
2022/01/14 11:42:46;;;;;;;;;53.33;43.67;;;;;16.12;38.45;103221.09;5056312;28;45441;-50
2022/01/14 11:45:15;;;;;;;;;57.33;42.33;;;;;16.16;38.43;103222.56;5059780;28;45554;-51